Time;durP1;ratioP1;P1;durP2;ratioP2;P2;SDS_P1;SDS_P2;PMS_P1;PMS_P2;Temp;Humidity;BMP_temperature;BMP_pressure;BME280_temperature;BME280_humidity;BME280_pressure;Samples;Min_cycle;Max_cycle;Signal;HPM_P1;HPM_P2
2022/01/29 00:00:38;;;;;;;47.20;29.47;;;;;;;;;;2089824;28;20599;-61
2022/01/29 00:01:39;;;;;;;52.13;33.87;;;;;;;;;;2081832;28;20195;-61
2022/01/29 00:02:40;;;;;;;59.37;32.50;;;;;;;;;;2083113;28;20180;-62
2022/01/29 00:03:40;;;;;;;55.07;32.60;;;;;;;;;;2089730;28;20282;-61
2022/01/29 00:04:40;;;;;;;52.50;31.37;;;;;;;;;;2089680;28;20168;-61
2022/01/29 00:05:41;;;;;;;56.50;32.28;;;;;;;;;;2089712;28;20176;-58
2022/01/29 00:06:41;;;;;;;55.67;33.22;;;;;;;;;;2080838;28;20562;-62
2022/01/29 00:07:42;;;;;;;59.08;33.72;;;;;;;;;;2080169;28;20601;-62
2022/01/29 00:08:43;;;;;;;44.42;27.58;;;;;;;;;;2089717;28;20186;-62
2022/01/29 00:09:44;;;;;;;46.90;27.65;;;;;;;;;;2089290;28;20245;-61
2022/01/29 00:10:47;;;;;;;44.93;28.43;;;;;;;;;;2089613;28;20260;-61
2022/01/29 00:11:48;;;;;;;48.83;29.37;;;;;;;;;;2081289;28;20177;-62
2022/01/29 00:12:48;;;;;;;56.10;33.70;;;;;;;;;;2088931;28;20368;-63
2022/01/29 00:13:48;;;;;;;61.30;34.00;;;;;;;;;;2096112;28;20206;-64
2022/01/29 00:14:49;;;;;;;56.43;32.60;;;;;;;;;;2089411;28;20176;-62
2022/01/29 00:15:49;;;;;;;57.87;32.50;;;;;;;;;;2089433;28;20191;-64
2022/01/29 00:16:49;;;;;;;57.67;31.77;;;;;;;;;;2089444;28;20191;-59
2022/01/29 00:17:49;;;;;;;59.87;32.93;;;;;;;;;;2088421;28;20225;-61
2022/01/29 00:18:50;;;;;;;59.60;33.13;;;;;;;;;;2088951;28;20184;-62
2022/01/29 00:19:50;;;;;;;57.03;33.70;;;;;;;;;;2088866;28;20550;-62
2022/01/29 00:20:50;;;;;;;56.67;33.90;;;;;;;;;;2089521;28;20263;-61
2022/01/29 00:21:51;;;;;;;60.70;35.70;;;;;;;;;;2089594;28;20202;-62
2022/01/29 00:22:51;;;;;;;54.80;32.87;;;;;;;;;;2087445;28;20187;-62
2022/01/29 00:23:51;;;;;;;59.17;33.70;;;;;;;;;;2089508;28;20190;-62
2022/01/29 00:24:52;;;;;;;55.03;32.47;;;;;;;;;;2088568;28;20193;-62
2022/01/29 00:25:52;;;;;;;55.77;32.23;;;;;;;;;;2088815;28;20176;-62
2022/01/29 00:26:53;;;;;;;56.27;32.63;;;;;;;;;;2087915;28;20553;-62
2022/01/29 00:27:54;;;;;;;52.83;31.73;;;;;;;;;;2087977;28;20489;-61
2022/01/29 00:28:56;;;;;;;56.23;34.17;;;;;;;;;;2088416;28;20191;-62
2022/01/29 00:29:58;;;;;;;56.83;31.80;;;;;;;;;;2095818;28;20859;-57
2022/01/29 00:30:58;;;;;;;51.67;31.63;;;;;;;;;;2096317;28;20577;-59
2022/01/29 00:31:58;;;;;;;52.77;31.40;;;;;;;;;;2088046;28;20184;-62
2022/01/29 00:32:59;;;;;;;51.17;31.67;;;;;;;;;;2089184;28;20176;-63
2022/01/29 00:33:59;;;;;;;49.93;30.47;;;;;;;;;;2088652;28;20265;-62
2022/01/29 00:34:59;;;;;;;58.17;34.07;;;;;;;;;;2088922;28;20163;-63
2022/01/29 00:35:59;;;;;;;48.13;30.13;;;;;;;;;;2090292;28;20164;-62
2022/01/29 00:37:00;;;;;;;47.70;27.33;;;;;;;;;;2089991;28;20241;-63
2022/01/29 00:38:00;;;;;;;53.60;31.53;;;;;;;;;;2089901;28;20174;-62
2022/01/29 00:39:00;;;;;;;47.47;29.20;;;;;;;;;;2090296;28;20256;-62
2022/01/29 00:40:01;;;;;;;47.77;30.50;;;;;;;;;;2090557;28;20179;-60
2022/01/29 00:41:04;;;;;;;54.10;33.17;;;;;;;;;;2090272;28;20706;-63
2022/01/29 00:42:04;;;;;;;45.50;25.13;;;;;;;;;;2090225;28;20174;-63
2022/01/29 00:43:05;;;;;;;51.33;33.10;;;;;;;;;;2097586;28;20178;-60
2022/01/29 00:44:05;;;;;;;49.40;30.97;;;;;;;;;;2097872;28;20197;-63
2022/01/29 00:45:06;;;;;;;52.77;32.07;;;;;;;;;;2089930;28;20187;-62
2022/01/29 00:46:06;;;;;;;51.40;29.27;;;;;;;;;;2090884;28;20210;-58
2022/01/29 00:47:06;;;;;;;47.07;29.73;;;;;;;;;;2090330;28;20202;-59
2022/01/29 00:48:06;;;;;;;52.57;33.10;;;;;;;;;;2090199;28;20333;-63
2022/01/29 00:49:07;;;;;;;55.13;32.47;;;;;;;;;;2089971;28;20184;-57
2022/01/29 00:50:09;;;;;;;47.30;29.27;;;;;;;;;;2098378;28;20190;-60
2022/01/29 00:51:09;;;;;;;51.13;30.93;;;;;;;;;;2098543;28;20171;-65
2022/01/29 00:52:09;;;;;;;48.07;29.60;;;;;;;;;;2090745;28;20636;-64
2022/01/29 00:53:10;;;;;;;39.90;22.93;;;;;;;;;;2098451;28;20558;-59
2022/01/29 00:54:10;;;;;;;46.63;29.53;;;;;;;;;;2097889;28;20271;-61
2022/01/29 00:55:11;;;;;;;53.37;32.77;;;;;;;;;;2091080;28;20197;-60
2022/01/29 00:56:11;;;;;;;51.50;30.03;;;;;;;;;;2094062;28;20206;-63
2022/01/29 00:57:11;;;;;;;51.77;30.93;;;;;;;;;;2081822;28;20188;-61
2022/01/29 00:58:11;;;;;;;48.10;31.43;;;;;;;;;;2089711;28;20168;-62
2022/01/29 00:59:12;;;;;;;47.50;29.73;;;;;;;;;;2081842;28;20179;-63
2022/01/29 01:00:13;;;;;;;47.63;29.37;;;;;;;;;;2089688;28;20546;-63
2022/01/29 01:01:13;;;;;;;57.03;30.77;;;;;;;;;;2090621;28;20225;-62
2022/01/29 01:02:14;;;;;;;51.30;30.60;;;;;;;;;;2089648;28;20632;-62
2022/01/29 01:03:14;;;;;;;52.80;30.83;;;;;;;;;;2084774;28;20735;-61
2022/01/29 01:04:14;;;;;;;49.20;29.20;;;;;;;;;;2089525;28;20176;-62
2022/01/29 01:05:15;;;;;;;45.30;27.93;;;;;;;;;;2090527;28;20266;-61
2022/01/29 01:06:15;;;;;;;50.77;30.53;;;;;;;;;;2098069;28;20681;-62
2022/01/29 01:07:15;;;;;;;46.70;28.83;;;;;;;;;;2097676;28;20651;-62
2022/01/29 01:08:15;;;;;;;44.87;27.30;;;;;;;;;;2090300;28;20348;-61
2022/01/29 01:09:16;;;;;;;53.87;31.17;;;;;;;;;;2098161;28;20175;-62
2022/01/29 01:10:16;;;;;;;53.97;30.83;;;;;;;;;;2097957;28;20175;-61
2022/01/29 01:11:17;;;;;;;46.63;30.23;;;;;;;;;;2089993;28;20711;-59
2022/01/29 01:12:17;;;;;;;41.70;25.27;;;;;;;;;;2081697;28;20547;-62
2022/01/29 01:13:17;;;;;;;46.20;29.43;;;;;;;;;;2081689;28;20180;-62
2022/01/29 01:14:18;;;;;;;51.23;29.10;;;;;;;;;;2089661;28;20174;-61
2022/01/29 01:15:18;;;;;;;42.03;24.30;;;;;;;;;;2088933;28;20187;-62
2022/01/29 01:16:18;;;;;;;49.03;30.93;;;;;;;;;;2089544;28;20309;-60
2022/01/29 01:17:19;;;;;;;51.93;31.33;;;;;;;;;;2090167;28;20171;-61
2022/01/29 01:18:19;;;;;;;50.10;31.67;;;;;;;;;;2097808;28;20642;-62
2022/01/29 01:19:20;;;;;;;46.30;30.00;;;;;;;;;;2097461;28;20221;-64
2022/01/29 01:20:20;;;;;;;49.83;32.20;;;;;;;;;;2089824;28;20648;-63
2022/01/29 01:21:20;;;;;;;48.55;31.15;;;;;;;;;;2098152;28;20270;-61
2022/01/29 01:22:21;;;;;;;52.63;30.90;;;;;;;;;;2098010;28;20179;-62
2022/01/29 01:23:21;;;;;;;43.93;28.50;;;;;;;;;;2090002;28;20191;-64
2022/01/29 01:24:22;;;;;;;48.33;28.03;;;;;;;;;;2089401;28;20199;-65
2022/01/29 01:25:23;;;;;;;50.43;29.73;;;;;;;;;;2090476;28;20255;-60
2022/01/29 01:26:23;;;;;;;53.37;31.13;;;;;;;;;;2090401;28;20241;-60
2022/01/29 01:27:23;;;;;;;46.60;29.43;;;;;;;;;;2090009;28;20195;-63
2022/01/29 01:28:23;;;;;;;48.10;27.47;;;;;;;;;;2090270;28;20237;-62
2022/01/29 01:29:24;;;;;;;33.27;20.40;;;;;;;;;;2090064;28;20160;-61
2022/01/29 01:30:24;;;;;;;41.00;25.17;;;;;;;;;;2090465;28;20163;-61
2022/01/29 01:31:25;;;;;;;42.67;28.10;;;;;;;;;;2090022;28;20249;-63
2022/01/29 01:32:25;;;;;;;44.50;26.53;;;;;;;;;;2090575;28;20191;-62
2022/01/29 01:33:25;;;;;;;48.20;28.47;;;;;;;;;;2090135;28;20287;-63
2022/01/29 01:34:30;;;;;;;41.17;26.53;;;;;;;;;;2091720;28;20632;-61
2022/01/29 01:35:36;;;;;;;48.40;29.77;;;;;;;;;;2091119;28;20659;-63
2022/01/29 01:36:44;;;;;;;40.47;23.80;;;;;;;;;;2091100;28;20160;-62
2022/01/29 01:37:50;;;;;;;46.50;28.57;;;;;;;;;;2090474;28;20179;-63
2022/01/29 01:38:56;;;;;;;46.30;28.87;;;;;;;;;;2091197;28;20163;-63
2022/01/29 01:39:56;;;;;;;52.20;29.20;;;;;;;;;;2091278;28;20207;-63
2022/01/29 01:41:02;;;;;;;47.43;29.90;;;;;;;;;;2091252;28;20179;-64
2022/01/29 01:42:06;;;;;;;37.80;25.13;;;;;;;;;;2091511;28;20348;-61
2022/01/29 01:43:07;;;;;;;40.00;26.10;;;;;;;;;;2091529;28;20233;-61
2022/01/29 01:44:12;;;;;;;49.60;29.40;;;;;;;;;;2091543;28;20270;-62
2022/01/29 01:45:13;;;;;;;50.83;29.27;;;;;;;;;;2091574;28;20202;-61
2022/01/29 01:46:13;;;;;;;47.57;30.57;;;;;;;;;;2091434;28;20187;-63
2022/01/29 01:47:14;;;;;;;46.30;26.00;;;;;;;;;;2091033;28;20599;-59
2022/01/29 01:48:15;;;;;;;44.20;28.23;;;;;;;;;;2091224;28;20352;-58
2022/01/29 01:49:19;;;;;;;44.60;26.33;;;;;;;;;;2091337;28;20676;-59
2022/01/29 01:50:21;;;;;;;46.77;30.60;;;;;;;;;;2090660;28;20172;-63
2022/01/29 01:51:21;;;;;;;43.03;28.37;;;;;;;;;;2090375;28;20561;-62
2022/01/29 01:52:22;;;;;;;45.73;28.10;;;;;;;;;;2090613;28;20199;-63
2022/01/29 01:53:22;;;;;;;39.67;23.00;;;;;;;;;;2090820;28;20206;-61
2022/01/29 01:54:22;;;;;;;48.10;29.73;;;;;;;;;;2090579;28;20258;-62
2022/01/29 01:55:23;;;;;;;45.10;29.10;;;;;;;;;;2098552;28;20167;-60
2022/01/29 01:56:23;;;;;;;46.20;30.20;;;;;;;;;;2098200;28;20266;-62
2022/01/29 01:57:23;;;;;;;46.57;29.47;;;;;;;;;;2089925;28;20739;-61
2022/01/29 01:58:23;;;;;;;46.77;26.67;;;;;;;;;;2090322;28;20175;-62
2022/01/29 01:59:24;;;;;;;40.77;26.63;;;;;;;;;;2091048;28;20651;-63
2022/01/29 02:00:25;;;;;;;48.53;29.37;;;;;;;;;;2087875;28;20234;-62
2022/01/29 02:01:25;;;;;;;40.73;23.97;;;;;;;;;;2087092;28;20184;-64
2022/01/29 02:02:25;;;;;;;45.40;27.77;;;;;;;;;;2084939;28;20206;-63
2022/01/29 02:03:26;;;;;;;41.10;26.10;;;;;;;;;;2087401;28;20187;-61
2022/01/29 02:04:26;;;;;;;46.43;28.63;;;;;;;;;;2089475;28;20572;-62
2022/01/29 02:05:26;;;;;;;49.30;28.73;;;;;;;;;;2089988;28;20172;-63
2022/01/29 02:06:27;;;;;;;39.83;25.47;;;;;;;;;;2090310;28;20229;-63
2022/01/29 02:07:27;;;;;;;37.57;22.23;;;;;;;;;;2088938;28;20183;-63
2022/01/29 02:08:28;;;;;;;45.50;29.83;;;;;;;;;;2089636;28;20661;-63
2022/01/29 02:09:30;;;;;;;43.50;26.60;;;;;;;;;;2081433;28;20211;-64
2022/01/29 02:10:30;;;;;;;43.57;25.27;;;;;;;;;;2089259;28;20168;-63
2022/01/29 02:11:31;;;;;;;40.67;24.93;;;;;;;;;;2090113;28;20660;-62
2022/01/29 02:12:34;;;;;;;40.57;26.13;;;;;;;;;;2094816;28;20560;-63
2022/01/29 02:13:34;;;;;;;48.17;28.10;;;;;;;;;;2089587;28;20196;-63
2022/01/29 02:14:35;;;;;;;47.30;28.70;;;;;;;;;;2089991;28;20199;-63
2022/01/29 02:15:35;;;;;;;48.83;30.50;;;;;;;;;;2090226;28;20176;-62
2022/01/29 02:16:35;;;;;;;40.80;25.77;;;;;;;;;;2089100;28;20198;-63
2022/01/29 02:17:35;;;;;;;49.77;28.87;;;;;;;;;;2089519;28;20683;-61
2022/01/29 02:18:37;;;;;;;45.83;26.33;;;;;;;;;;2089253;28;20191;-62
2022/01/29 02:19:38;;;;;;;50.77;31.10;;;;;;;;;;2089115;28;20175;-64
2022/01/29 02:20:38;;;;;;;41.90;24.90;;;;;;;;;;2083572;28;20172;-62
2022/01/29 02:21:39;;;;;;;51.67;28.67;;;;;;;;;;2089024;28;20179;-64
2022/01/29 02:22:40;;;;;;;48.33;26.93;;;;;;;;;;2089235;28;20172;-62
2022/01/29 02:23:40;;;;;;;52.27;28.73;;;;;;;;;;2089126;28;20230;-61
2022/01/29 02:24:40;;;;;;;49.20;30.77;;;;;;;;;;2096461;28;20232;-61
2022/01/29 02:25:42;;;;;;;47.93;31.37;;;;;;;;;;2097251;28;20183;-62
2022/01/29 02:26:43;;;;;;;50.13;28.17;;;;;;;;;;2089761;28;20179;-62
2022/01/29 02:27:43;;;;;;;50.07;27.07;;;;;;;;;;2089830;28;20630;-61
2022/01/29 02:28:44;;;;;;;60.40;35.00;;;;;;;;;;2088730;28;20175;-59
2022/01/29 02:29:44;;;;;;;48.40;27.10;;;;;;;;;;2081261;28;20788;-61
2022/01/29 02:30:46;;;;;;;50.60;31.40;;;;;;;;;;2088824;28;20581;-59
2022/01/29 02:31:54;;;;;;;45.53;26.27;;;;;;;;;;2089079;28;20178;-63
2022/01/29 02:32:54;;;;;;;44.80;22.40;;;;;;;;;;2082119;28;20172;-58
2022/01/29 02:33:55;;;;;;;48.87;26.33;;;;;;;;;;2089123;28;20211;-60
2022/01/29 02:34:55;;;;;;;49.67;28.77;;;;;;;;;;2096417;28;20664;-62
2022/01/29 02:35:56;;;;;;;44.67;23.57;;;;;;;;;;2096676;28;20636;-60
2022/01/29 02:36:56;;;;;;;56.87;30.47;;;;;;;;;;2089921;28;20238;-61
2022/01/29 02:37:57;;;;;;;56.40;31.57;;;;;;;;;;2088725;28;20240;-62
2022/01/29 02:38:59;;;;;;;47.93;27.03;;;;;;;;;;2089110;28;20175;-62
2022/01/29 02:39:59;;;;;;;51.60;29.70;;;;;;;;;;2082548;28;20665;-61
2022/01/29 02:41:01;;;;;;;50.07;28.37;;;;;;;;;;2088956;28;20202;-58
2022/01/29 02:42:02;;;;;;;55.57;31.23;;;;;;;;;;2089394;28;20179;-62
2022/01/29 02:43:09;;;;;;;55.13;30.80;;;;;;;;;;2088715;28;20179;-64
2022/01/29 02:44:16;;;;;;;54.43;32.30;;;;;;;;;;2085035;28;20373;-62
2022/01/29 02:45:16;;;;;;;58.13;32.30;;;;;;;;;;2086857;28;20264;-62
2022/01/29 02:46:28;;;;;;;46.80;26.73;;;;;;;;;;2088110;28;20234;-62
2022/01/29 02:47:33;;;;;;;53.00;26.13;;;;;;;;;;2083999;28;20196;-62
2022/01/29 02:48:33;;;;;;;51.30;28.87;;;;;;;;;;2087399;28;20230;-63
2022/01/29 02:49:33;;;;;;;51.57;30.47;;;;;;;;;;2079890;28;20177;-61
2022/01/29 02:50:34;;;;;;;56.10;32.23;;;;;;;;;;2086834;28;20635;-64
2022/01/29 02:51:34;;;;;;;63.23;34.87;;;;;;;;;;2089326;28;20211;-63
2022/01/29 02:52:34;;;;;;;58.87;32.63;;;;;;;;;;2089654;28;20197;-62
2022/01/29 02:53:35;;;;;;;50.83;26.87;;;;;;;;;;2089605;28;20245;-64
2022/01/29 02:54:35;;;;;;;46.87;24.40;;;;;;;;;;2089536;28;20250;-64
2022/01/29 02:55:36;;;;;;;36.63;23.57;;;;;;;;;;2085653;28;20195;-63
2022/01/29 02:56:36;;;;;;;58.93;31.13;;;;;;;;;;2089676;28;20194;-62
2022/01/29 02:57:36;;;;;;;58.17;29.83;;;;;;;;;;2087976;28;20183;-61
2022/01/29 02:58:37;;;;;;;58.03;31.50;;;;;;;;;;2087890;28;20250;-63
2022/01/29 02:59:37;;;;;;;60.03;31.40;;;;;;;;;;2088741;28;20180;-64
2022/01/29 03:00:37;;;;;;;63.77;34.37;;;;;;;;;;2095760;28;20198;-62
2022/01/29 03:01:38;;;;;;;52.23;28.00;;;;;;;;;;2097299;28;20228;-63
2022/01/29 03:02:38;;;;;;;55.90;31.00;;;;;;;;;;2088448;28;20183;-63
2022/01/29 03:03:38;;;;;;;57.63;28.13;;;;;;;;;;2088346;28;20187;-63
2022/01/29 03:04:39;;;;;;;61.53;33.70;;;;;;;;;;2086931;28;20171;-62
2022/01/29 03:05:39;;;;;;;49.03;27.03;;;;;;;;;;2088901;28;20168;-62
2022/01/29 03:06:40;;;;;;;44.93;26.00;;;;;;;;;;2088887;28;20187;-62
2022/01/29 03:07:40;;;;;;;50.90;31.93;;;;;;;;;;2089342;28;20175;-64
2022/01/29 03:08:40;;;;;;;64.77;34.80;;;;;;;;;;2089713;28;20172;-62
2022/01/29 03:09:40;;;;;;;60.37;31.33;;;;;;;;;;2088853;28;20167;-63
2022/01/29 03:10:41;;;;;;;62.13;32.83;;;;;;;;;;2089788;28;20202;-64
2022/01/29 03:11:41;;;;;;;62.97;30.67;;;;;;;;;;2089456;28;20247;-64
2022/01/29 03:12:41;;;;;;;51.50;27.73;;;;;;;;;;2089167;28;20179;-62
2022/01/29 03:13:42;;;;;;;58.30;31.90;;;;;;;;;;2088676;28;20195;-63
2022/01/29 03:14:42;;;;;;;55.43;32.67;;;;;;;;;;2089602;28;20195;-62
2022/01/29 03:15:42;;;;;;;56.73;31.10;;;;;;;;;;2089016;28;20292;-63
2022/01/29 03:16:43;;;;;;;60.40;33.57;;;;;;;;;;2089216;28;20174;-62
2022/01/29 03:17:43;;;;;;;58.43;31.97;;;;;;;;;;2089197;28;20167;-63
2022/01/29 03:18:43;;;;;;;59.33;33.23;;;;;;;;;;2089696;28;20656;-65
2022/01/29 03:19:43;;;;;;;55.17;30.40;;;;;;;;;;2089575;28;20172;-65
2022/01/29 03:20:44;;;;;;;50.53;30.67;;;;;;;;;;2089546;28;20186;-61
2022/01/29 03:21:44;;;;;;;52.67;29.83;;;;;;;;;;2090740;28;20534;-64
2022/01/29 03:22:44;;;;;;;50.93;28.97;;;;;;;;;;2090220;28;20176;-61
2022/01/29 03:23:45;;;;;;;56.27;32.83;;;;;;;;;;2090686;28;20183;-63
2022/01/29 03:24:45;;;;;;;53.50;32.27;;;;;;;;;;2090805;28;20172;-65
2022/01/29 03:25:45;;;;;;;53.43;28.90;;;;;;;;;;2090239;28;20175;-62
2022/01/29 03:26:46;;;;;;;38.93;24.70;;;;;;;;;;2090804;28;20174;-63
2022/01/29 03:27:46;;;;;;;53.67;31.73;;;;;;;;;;2090006;28;20199;-61
2022/01/29 03:28:46;;;;;;;53.73;31.77;;;;;;;;;;2090618;28;20552;-64
2022/01/29 03:29:47;;;;;;;50.10;27.13;;;;;;;;;;2089664;28;20175;-62
2022/01/29 03:30:47;;;;;;;54.00;29.30;;;;;;;;;;2089384;28;20165;-62
2022/01/29 03:31:48;;;;;;;55.63;26.87;;;;;;;;;;2090217;28;20179;-63
2022/01/29 03:32:48;;;;;;;48.40;26.60;;;;;;;;;;2089426;28;20164;-62
2022/01/29 03:33:48;;;;;;;51.97;31.53;;;;;;;;;;2109599;22;20253;-58
2022/01/29 03:34:48;;;;;;;53.40;30.47;;;;;;;;;;2086813;28;20176;-61
2022/01/29 03:35:49;;;;;;;43.20;23.20;;;;;;;;;;2089703;28;20248;-56
2022/01/29 03:36:50;;;;;;;59.87;33.73;;;;;;;;;;2081149;28;20596;-57
2022/01/29 03:37:50;;;;;;;52.97;30.10;;;;;;;;;;2080412;28;20620;-59
2022/01/29 03:38:51;;;;;;;57.87;30.83;;;;;;;;;;2089630;28;20183;-59
2022/01/29 03:39:52;;;;;;;50.20;28.00;;;;;;;;;;2090082;28;20179;-58
2022/01/29 03:40:53;;;;;;;53.23;32.70;;;;;;;;;;2090031;28;20175;-57
2022/01/29 03:41:54;;;;;;;60.27;34.63;;;;;;;;;;2090200;28;20209;-57
2022/01/29 03:43:04;;;;;;;46.57;27.07;;;;;;;;;;2090235;28;20172;-55
2022/01/29 03:44:07;;;;;;;52.67;28.80;;;;;;;;;;2090746;28;20289;-57
2022/01/29 03:45:08;;;;;;;45.20;25.33;;;;;;;;;;2082092;28;20183;-57
2022/01/29 03:46:09;;;;;;;49.37;28.27;;;;;;;;;;2081423;28;20188;-57
2022/01/29 03:47:09;;;;;;;59.80;32.80;;;;;;;;;;2081646;28;20621;-58
2022/01/29 03:48:09;;;;;;;62.27;34.47;;;;;;;;;;2081680;28;20218;-58
2022/01/29 03:49:10;;;;;;;59.97;35.43;;;;;;;;;;2081783;28;20171;-58
2022/01/29 03:50:10;;;;;;;63.73;33.93;;;;;;;;;;2081937;28;20180;-58
2022/01/29 03:51:10;;;;;;;61.63;34.00;;;;;;;;;;2091271;28;20175;-57
2022/01/29 03:52:10;;;;;;;67.77;33.20;;;;;;;;;;2098874;28;20245;-57
2022/01/29 03:53:11;;;;;;;62.20;33.67;;;;;;;;;;2099384;28;20173;-57
2022/01/29 03:54:11;;;;;;;80.73;34.40;;;;;;;;;;2081544;28;20574;-57
2022/01/29 03:55:11;;;;;;;62.40;32.80;;;;;;;;;;2081732;28;20172;-58
2022/01/29 03:56:12;;;;;;;62.10;35.30;;;;;;;;;;2091084;28;20329;-55
2022/01/29 03:57:12;;;;;;;58.30;33.33;;;;;;;;;;2091220;28;20172;-54
2022/01/29 03:58:12;;;;;;;63.67;35.53;;;;;;;;;;2091177;28;20184;-54
2022/01/29 03:59:13;;;;;;;56.80;31.33;;;;;;;;;;2091394;28;20701;-55
2022/01/29 04:00:13;;;;;;;56.60;29.97;;;;;;;;;;2099197;28;20183;-57
2022/01/29 04:01:13;;;;;;;56.53;32.10;;;;;;;;;;2095732;28;20183;-54
2022/01/29 04:02:14;;;;;;;59.00;32.40;;;;;;;;;;2089923;28;20203;-55
2022/01/29 04:03:14;;;;;;;63.87;34.63;;;;;;;;;;2089411;28;20208;-55
2022/01/29 04:04:14;;;;;;;51.50;29.40;;;;;;;;;;2079289;28;20634;-57
2022/01/29 04:05:15;;;;;;;48.53;29.10;;;;;;;;;;2076576;28;20180;-54
2022/01/29 04:06:15;;;;;;;55.87;32.37;;;;;;;;;;2088847;28;20171;-54
2022/01/29 04:07:15;;;;;;;57.07;30.57;;;;;;;;;;2088650;28;20378;-55
2022/01/29 04:08:17;;;;;;;42.43;22.50;;;;;;;;;;2089105;28;20622;-54
2022/01/29 04:09:19;;;;;;;58.40;33.20;;;;;;;;;;2088717;28;20209;-55
2022/01/29 04:10:21;;;;;;;50.00;29.80;;;;;;;;;;2088773;28;20180;-54
2022/01/29 04:11:22;;;;;;;57.37;32.77;;;;;;;;;;2090198;28;20186;-54
2022/01/29 04:12:25;;;;;;;45.27;23.77;;;;;;;;;;2090754;28;20179;-56
2022/01/29 04:13:27;;;;;;;51.70;30.43;;;;;;;;;;2090655;28;20188;-55
2022/01/29 04:14:33;;;;;;;43.83;25.73;;;;;;;;;;2080246;28;20213;-58
2022/01/29 04:15:33;;;;;;;46.47;23.97;;;;;;;;;;2082514;28;20812;-57
2022/01/29 04:16:34;;;;;;;56.57;32.43;;;;;;;;;;2088267;28;20217;-54
2022/01/29 04:17:34;;;;;;;51.73;29.73;;;;;;;;;;2088972;28;20229;-57
2022/01/29 04:18:34;;;;;;;54.67;30.87;;;;;;;;;;2081454;28;20176;-58
2022/01/29 04:19:35;;;;;;;32.40;19.57;;;;;;;;;;2079416;28;20165;-58
2022/01/29 04:20:35;;;;;;;48.60;28.87;;;;;;;;;;2080279;28;20192;-59
2022/01/29 04:21:35;;;;;;;43.77;26.27;;;;;;;;;;2089699;28;20254;-58
2022/01/29 04:22:36;;;;;;;51.47;30.87;;;;;;;;;;2089412;28;20182;-57
2022/01/29 04:23:37;;;;;;;52.90;31.23;;;;;;;;;;2081546;28;20859;-56
2022/01/29 04:24:37;;;;;;;61.70;31.50;;;;;;;;;;2086429;28;20607;-57
2022/01/29 04:25:38;;;;;;;50.63;31.23;;;;;;;;;;2089298;28;20211;-56
2022/01/29 04:26:38;;;;;;;53.30;30.03;;;;;;;;;;2090225;28;20187;-58
2022/01/29 04:27:44;;;;;;;48.43;28.30;;;;;;;;;;2089707;28;20188;-59
2022/01/29 04:28:46;;;;;;;52.97;28.20;;;;;;;;;;2085593;28;20180;-57
2022/01/29 04:29:56;;;;;;;51.27;29.97;;;;;;;;;;2081310;28;20222;-58
2022/01/29 04:31:01;;;;;;;46.60;29.47;;;;;;;;;;2082619;28;20679;-58
2022/01/29 04:32:10;;;;;;;44.23;28.07;;;;;;;;;;2080991;28;20175;-57
2022/01/29 04:34:23;;;;;;;48.30;27.30;;;;;;;;;;2076916;28;20208;-58
2022/01/29 04:35:23;;;;;;;42.50;25.73;;;;;;;;;;2070325;28;20171;-57
2022/01/29 04:36:24;;;;;;;50.37;30.07;;;;;;;;;;2073061;28;20263;-58
2022/01/29 04:37:24;;;;;;;52.07;30.03;;;;;;;;;;2080680;28;20176;-58
2022/01/29 04:38:25;;;;;;;49.93;28.93;;;;;;;;;;2081146;28;20695;-62
2022/01/29 04:39:25;;;;;;;49.63;29.30;;;;;;;;;;2090163;28;20178;-58
2022/01/29 04:40:25;;;;;;;44.30;26.17;;;;;;;;;;2085123;28;20560;-56
2022/01/29 04:41:26;;;;;;;51.53;27.57;;;;;;;;;;2088482;28;20180;-58
2022/01/29 04:42:26;;;;;;;46.97;26.63;;;;;;;;;;2086677;28;20704;-58
2022/01/29 04:43:26;;;;;;;32.33;20.47;;;;;;;;;;2087714;28;20337;-56
2022/01/29 04:44:26;;;;;;;39.90;24.37;;;;;;;;;;2089344;28;20266;-58
2022/01/29 04:45:27;;;;;;;47.87;30.27;;;;;;;;;;2090570;28;20820;-57
2022/01/29 04:46:28;;;;;;;37.67;23.40;;;;;;;;;;2089788;28;20744;-59
2022/01/29 04:47:28;;;;;;;34.37;20.63;;;;;;;;;;2081053;28;20403;-56
2022/01/29 04:48:28;;;;;;;41.87;25.33;;;;;;;;;;2080711;28;20294;-58
2022/01/29 04:49:29;;;;;;;40.57;23.60;;;;;;;;;;2092239;28;20178;-57
2022/01/29 04:50:29;;;;;;;45.10;26.43;;;;;;;;;;2090667;28;20270;-57
2022/01/29 04:51:29;;;;;;;44.17;26.00;;;;;;;;;;2091871;28;20205;-56
2022/01/29 04:52:29;;;;;;;47.17;29.63;;;;;;;;;;2092015;28;20203;-56
2022/01/29 04:53:30;;;;;;;44.30;26.47;;;;;;;;;;2082353;28;20173;-58
2022/01/29 04:54:30;;;;;;;46.00;26.63;;;;;;;;;;2081536;28;20184;-55
2022/01/29 04:55:31;;;;;;;42.80;24.77;;;;;;;;;;2091325;28;20197;-56
2022/01/29 04:56:34;;;;;;;36.23;23.63;;;;;;;;;;2091947;28;20184;-58
2022/01/29 04:57:36;;;;;;;43.33;27.00;;;;;;;;;;2091309;28;20180;-54
2022/01/29 04:58:37;;;;;;;44.03;27.57;;;;;;;;;;2099295;28;20179;-57
2022/01/29 04:59:37;;;;;;;40.27;25.33;;;;;;;;;;2097821;28;20180;-54
2022/01/29 05:00:38;;;;;;;41.60;24.60;;;;;;;;;;2091947;28;20180;-57
2022/01/29 05:01:39;;;;;;;43.23;26.03;;;;;;;;;;2091521;28;20679;-55
2022/01/29 05:02:39;;;;;;;42.93;26.83;;;;;;;;;;2090958;28;20276;-58
2022/01/29 05:03:39;;;;;;;43.57;24.83;;;;;;;;;;2082961;28;20656;-60
2022/01/29 05:04:40;;;;;;;42.70;26.37;;;;;;;;;;2082902;28;20180;-57
2022/01/29 05:05:41;;;;;;;44.27;29.90;;;;;;;;;;2090965;28;20180;-56
2022/01/29 05:06:41;;;;;;;36.57;23.40;;;;;;;;;;2091531;28;20180;-57
2022/01/29 05:07:41;;;;;;;40.03;24.53;;;;;;;;;;2091286;28;20174;-58
2022/01/29 05:08:42;;;;;;;36.63;24.07;;;;;;;;;;2087350;28;20177;-57
2022/01/29 05:09:42;;;;;;;32.13;21.87;;;;;;;;;;2091503;28;20199;-58
2022/01/29 05:10:42;;;;;;;34.77;22.60;;;;;;;;;;2087562;28;20196;-56
2022/01/29 05:11:46;;;;;;;33.65;19.98;;;;;;;;;;2091170;28;20651;-56
2022/01/29 05:12:53;;;;;;;26.87;17.30;;;;;;;;;;2086654;28;20180;-56
2022/01/29 05:13:53;;;;;;;42.57;26.03;;;;;;;;;;2091840;28;20673;-56
2022/01/29 05:27:18;;;;;;;26.30;18.00;;;;;;;;;;2086388;28;20167;-56
2022/01/29 05:28:18;;;;;;;29.63;20.93;;;;;;;;;;2089120;28;20294;-58
2022/01/29 05:29:19;;;;;;;36.30;24.77;;;;;;;;;;2086103;28;20735;-54
2022/01/29 05:30:19;;;;;;;29.50;21.23;;;;;;;;;;2094070;28;20182;-55
2022/01/29 05:31:19;;;;;;;29.10;20.30;;;;;;;;;;2097894;28;20194;-57
2022/01/29 05:32:22;;;;;;;33.67;22.40;;;;;;;;;;2087581;28;20160;-56
2022/01/29 05:33:22;;;;;;;27.90;20.13;;;;;;;;;;2081454;28;20192;-57
2022/01/29 05:34:22;;;;;;;33.17;21.23;;;;;;;;;;2080391;28;20356;-57
2022/01/29 05:35:23;;;;;;;33.53;22.63;;;;;;;;;;2090602;28;20271;-57
2022/01/29 05:36:23;;;;;;;29.02;19.05;;;;;;;;;;2087013;28;20192;-55
2022/01/29 05:37:24;;;;;;;26.75;18.92;;;;;;;;;;2087483;28;20167;-57
2022/01/29 05:38:26;;;;;;;30.43;20.07;;;;;;;;;;2089561;28;20188;-57
2022/01/29 05:39:27;;;;;;;31.00;21.60;;;;;;;;;;2090552;28;20210;-57
2022/01/29 05:40:27;;;;;;;25.77;18.37;;;;;;;;;;2085428;28;20730;-57
2022/01/29 05:41:30;;;;;;;31.30;20.03;;;;;;;;;;2089398;28;20190;-57
2022/01/29 05:42:30;;;;;;;30.60;20.03;;;;;;;;;;2089874;28;20266;-57
2022/01/29 05:43:31;;;;;;;32.20;22.33;;;;;;;;;;2089573;28;20226;-57
2022/01/29 05:44:31;;;;;;;29.87;20.30;;;;;;;;;;2089334;28;20695;-57
2022/01/29 05:45:32;;;;;;;30.63;22.20;;;;;;;;;;2090273;28;20238;-58
2022/01/29 05:46:32;;;;;;;24.33;17.00;;;;;;;;;;2089662;28;20255;-56
2022/01/29 05:47:33;;;;;;;23.73;15.37;;;;;;;;;;2090025;28;20167;-57
2022/01/29 05:48:33;;;;;;;25.37;17.10;;;;;;;;;;2083253;28;20263;-57
2022/01/29 05:49:34;;;;;;;29.13;22.00;;;;;;;;;;2087960;28;20171;-58
2022/01/29 05:50:34;;;;;;;23.63;17.40;;;;;;;;;;2089386;28;20195;-58
2022/01/29 05:51:34;;;;;;;30.00;19.37;;;;;;;;;;2089284;28;20199;-59
2022/01/29 05:52:34;;;;;;;30.77;20.50;;;;;;;;;;2088976;28;20187;-57
2022/01/29 05:53:35;;;;;;;31.30;20.40;;;;;;;;;;2089713;28;20175;-57
2022/01/29 05:54:35;;;;;;;33.45;22.40;;;;;;;;;;2088246;28;20254;-55
2022/01/29 05:55:36;;;;;;;29.43;17.57;;;;;;;;;;2089161;28;20183;-53
2022/01/29 05:56:36;;;;;;;30.08;19.42;;;;;;;;;;2097962;28;20171;-56
2022/01/29 05:57:37;;;;;;;26.85;18.15;;;;;;;;;;2096175;28;20198;-54
2022/01/29 05:58:37;;;;;;;27.13;20.10;;;;;;;;;;2090548;28;20167;-58
2022/01/29 05:59:37;;;;;;;29.90;19.42;;;;;;;;;;2089510;28;20659;-54
2022/01/29 06:00:37;;;;;;;32.10;21.45;;;;;;;;;;2087933;28;20306;-55
2022/01/29 06:01:37;;;;;;;25.83;15.30;;;;;;;;;;2086148;28;20180;-55
2022/01/29 06:02:38;;;;;;;32.35;21.20;;;;;;;;;;2094198;28;20577;-55
2022/01/29 06:03:38;;;;;;;30.20;21.17;;;;;;;;;;2088667;28;20234;-55
2022/01/29 06:04:38;;;;;;;28.67;18.63;;;;;;;;;;2090020;28;20249;-58
2022/01/29 06:05:39;;;;;;;29.53;20.67;;;;;;;;;;2080929;28;20180;-60
2022/01/29 06:06:39;;;;;;;28.90;20.50;;;;;;;;;;2081444;28;20300;-55
2022/01/29 06:07:39;;;;;;;30.27;20.20;;;;;;;;;;2088185;28;20187;-56